Time;durP1;ratioP1;P1;durP2;ratioP2;P2;SDS_P1;SDS_P2;PMS_P1;PMS_P2;Temp;Humidity;BMP_temperature;BMP_pressure;BME280_temperature;BME280_humidity;BME280_pressure;Samples;Min_cycle;Max_cycle;Signal;HPM_P1;HPM_P2
2022/06/07 00:02:05;;;;;;;5.35;3.53;;;11.40;99.90;;;;;;5033216;28;20455;-88
2022/06/07 00:04:32;;;;;;;6.72;3.45;;;11.40;99.90;;;;;;5028711;28;20412;-87
2022/06/07 00:06:58;;;;;;;9.57;4.32;;;11.40;99.90;;;;;;5046441;28;20124;-88
2022/06/07 00:09:24;;;;;;;4.32;3.42;;;11.40;99.90;;;;;;5033450;28;20056;-88
2022/06/07 00:11:50;;;;;;;3.33;2.45;;;11.50;99.90;;;;;;5034219;28;20025;-88
2022/06/07 00:14:15;;;;;;;4.55;2.90;;;11.50;99.90;;;;;;5032605;28;20034;-88
2022/06/07 00:16:41;;;;;;;6.55;2.70;;;11.50;99.90;;;;;;5018594;28;20113;-88
2022/06/07 00:19:07;;;;;;;4.55;2.40;;;11.50;99.90;;;;;;5033485;28;20105;-88
2022/06/07 00:21:33;;;;;;;5.40;2.47;;;11.60;99.90;;;;;;5030953;28;20026;-88
2022/06/07 00:24:00;;;;;;;4.90;2.67;;;11.60;99.90;;;;;;5028794;28;20032;-88
2022/06/07 00:26:28;;;;;;;7.50;2.55;;;11.60;99.90;;;;;;5032709;28;20105;-88
2022/06/07 00:28:54;;;;;;;5.70;2.33;;;11.70;99.90;;;;;;5032191;28;20025;-88
2022/06/07 00:31:20;;;;;;;4.18;1.95;;;11.70;99.90;;;;;;5032468;28;20029;-88
2022/06/07 00:33:46;;;;;;;3.45;1.83;;;11.80;99.90;;;;;;5032243;28;20641;-86
2022/06/07 00:36:12;;;;;;;2.42;2.20;;;11.90;99.90;;;;;;5023019;28;20471;-88
2022/06/07 00:38:38;;;;;;;2.72;2.40;;;11.90;99.90;;;;;;5030342;28;20490;-89
2022/06/07 00:41:04;;;;;;;4.82;1.95;;;11.90;99.90;;;;;;5065924;22;20055;-87
2022/06/07 00:43:30;;;;;;;3.97;1.95;;;11.90;99.90;;;;;;5031412;28;20069;-87
2022/06/07 00:45:57;;;;;;;2.70;2.00;;;11.90;99.90;;;;;;5031109;28;20028;-87
2022/06/07 00:48:23;;;;;;;4.57;2.13;;;12.00;99.90;;;;;;5031262;28;20076;-88
2022/06/07 00:51:01;;;;;;;3.72;1.80;;;12.00;99.90;;;;;;5031048;28;20029;-88
2022/06/07 00:53:35;;;;;;;3.53;2.03;;;12.00;99.90;;;;;;5030808;28;20020;-88
2022/06/07 00:56:03;;;;;;;1.75;1.65;;;12.00;99.90;;;;;;5030774;28;20057;-88
2022/06/07 00:58:30;;;;;;;4.03;1.80;;;12.00;99.90;;;;;;5032187;28;20124;-88
2022/06/07 01:00:57;;;;;;;3.53;2.20;;;12.00;99.90;;;;;;5013786;28;20025;-88
2022/06/07 01:03:23;;;;;;;3.00;1.80;;;12.10;99.90;;;;;;5030579;28;20117;-88
2022/06/07 01:05:50;;;;;;;2.45;1.58;;;12.00;99.90;;;;;;5023981;28;20064;-88
2022/06/07 01:11:02;;;;;;;6.35;1.90;;;12.00;99.90;;;;;;5025024;28;20028;-87
2022/06/07 01:13:32;;;;;;;2.35;1.77;;;12.10;99.90;;;;;;5031533;28;20115;-87
2022/06/07 01:16:08;;;;;;;3.95;1.92;;;12.10;99.90;;;;;;5030186;28;20029;-87
2022/06/07 01:18:34;;;;;;;2.75;1.80;;;12.20;99.90;;;;;;5029999;28;20026;-88
2022/06/07 01:21:14;;;;;;;3.35;2.10;;;12.20;99.90;;;;;;5030583;28;20025;-87
2022/06/07 01:23:42;;;;;;;2.38;1.75;;;12.20;99.90;;;;;;5024351;28;20128;-87
2022/06/07 01:26:09;;;;;;;2.75;2.05;;;12.20;99.90;;;;;;5013185;28;20018;-88
2022/06/07 01:28:35;;;;;;;2.42;1.98;;;12.20;99.90;;;;;;5031078;28;20040;-87
2022/06/07 01:31:01;;;;;;;2.33;1.85;;;12.20;99.90;;;;;;5023984;28;20383;-87
2022/06/07 01:33:26;;;;;;;2.28;1.80;;;12.30;99.90;;;;;;5013188;28;20076;-87
2022/06/07 01:36:02;;;;;;;2.72;1.90;;;12.30;99.90;;;;;;5030381;28;20025;-87
2022/06/07 01:38:30;;;;;;;4.22;1.98;;;12.30;99.90;;;;;;5031030;28;20017;-86
2022/06/07 01:43:39;;;;;;;2.05;1.80;;;12.30;99.90;;;;;;5007477;28;20128;-87
2022/06/07 01:46:05;;;;;;;2.45;2.22;;;12.30;99.90;;;;;;4993299;28;20105;-88
2022/06/07 01:48:31;;;;;;;4.00;2.40;;;12.40;99.90;;;;;;4992521;28;20104;-87
2022/06/07 01:51:06;;;;;;;5.80;2.40;;;12.40;99.90;;;;;;4993564;28;20467;-87
2022/06/07 01:53:32;;;;;;;8.45;1.85;;;12.40;99.90;;;;;;4989243;28;20388;-87
2022/06/07 01:56:06;;;;;;;3.67;1.80;;;12.50;99.90;;;;;;5008053;28;20025;-86
2022/06/07 01:58:33;;;;;;;3.85;2.28;;;12.50;99.90;;;;;;4996133;28;20026;-87
2022/06/07 02:00:58;;;;;;;4.65;2.75;;;12.60;99.90;;;;;;4993271;28;20026;-88
2022/06/07 02:03:24;;;;;;;2.67;2.40;;;12.60;99.90;;;;;;5011623;28;20049;-88
2022/06/07 02:06:12;;;;;;;5.55;2.90;;;12.60;99.90;;;;;;4992985;28;20521;-87
2022/06/07 02:08:40;;;;;;;2.90;2.38;;;12.60;99.90;;;;;;4993459;28;20115;-87
2022/06/07 02:11:18;;;;;;;2.53;2.05;;;12.60;99.90;;;;;;5012701;28;20054;-87
2022/06/07 02:13:46;;;;;;;3.20;2.30;;;12.70;99.90;;;;;;5005509;28;20022;-88
2022/06/07 02:16:12;;;;;;;3.63;2.47;;;12.70;99.90;;;;;;4992899;28;20037;-87
2022/06/07 02:18:38;;;;;;;4.80;1.92;;;12.70;99.90;;;;;;5009456;28;20410;-88
2022/06/07 02:21:05;;;;;;;3.45;2.75;;;12.70;99.90;;;;;;4993075;28;20525;-87
2022/06/07 02:23:33;;;;;;;8.13;2.97;;;12.70;99.90;;;;;;5009986;28;20015;-87
2022/06/07 02:26:10;;;;;;;3.97;3.00;;;12.70;99.90;;;;;;4992988;28;20017;-88
2022/06/07 02:28:39;;;;;;;5.82;3.42;;;12.80;99.90;;;;;;5010860;28;20377;-87
2022/06/07 02:31:05;;;;;;;6.85;3.78;;;12.80;99.90;;;;;;4992549;28;20022;-87
2022/06/07 02:33:33;;;;;;;5.38;3.90;;;12.90;99.90;;;;;;5002581;28;20132;-87
2022/06/07 02:35:59;;;;;;;4.03;3.22;;;13.00;99.90;;;;;;4992150;28;20062;-87
2022/06/07 02:38:25;;;;;;;4.97;3.10;;;13.00;99.90;;;;;;5010174;28;20018;-86
2022/06/07 02:40:53;;;;;;;5.97;3.30;;;13.00;99.90;;;;;;5027513;22;20077;-87
2022/06/07 02:43:20;;;;;;;6.32;3.08;;;13.00;99.90;;;;;;5010103;28;20494;-88
2022/06/07 02:45:46;;;;;;;2.90;2.58;;;13.00;99.90;;;;;;5008935;28;20056;-88
2022/06/07 02:48:12;;;;;;;5.03;3.38;;;12.90;99.90;;;;;;5009593;28;20030;-88
2022/06/07 02:50:38;;;;;;;3.10;2.42;;;13.00;99.90;;;;;;5009592;28;20028;-87
2022/06/07 02:53:04;;;;;;;5.78;3.25;;;13.00;99.90;;;;;;5010514;28;20030;-88
2022/06/07 02:55:30;;;;;;;7.53;3.53;;;13.00;99.90;;;;;;5010048;28;20037;-87
2022/06/07 02:57:56;;;;;;;4.50;3.20;;;13.00;99.90;;;;;;5011102;28;20467;-88
2022/06/07 03:00:22;;;;;;;4.68;3.47;;;13.00;99.90;;;;;;5012002;28;20034;-88
2022/06/07 03:02:48;;;;;;;7.28;3.45;;;13.00;99.90;;;;;;5014510;28;20567;-88
2022/06/07 03:05:14;;;;;;;7.82;4.18;;;13.00;99.90;;;;;;5013546;28;20105;-88
2022/06/07 03:07:41;;;;;;;6.38;3.63;;;13.00;99.90;;;;;;5014373;28;20037;-88
2022/06/07 03:10:09;;;;;;;6.00;4.15;;;13.00;99.90;;;;;;5013846;28;20029;-87
2022/06/07 03:12:35;;;;;;;7.70;3.65;;;13.00;99.90;;;;;;5010361;28;20069;-87
2022/06/07 03:15:01;;;;;;;5.50;3.67;;;13.00;99.90;;;;;;5013537;28;20642;-88
2022/06/07 03:17:27;;;;;;;6.72;3.45;;;13.00;99.90;;;;;;5013822;28;20116;-87
2022/06/07 03:19:53;;;;;;;5.45;2.92;;;13.00;99.90;;;;;;5013249;28;20494;-88
2022/06/07 03:22:19;;;;;;;4.65;3.00;;;12.90;99.90;;;;;;5006321;28;20091;-87
2022/06/07 03:24:45;;;;;;;5.03;3.10;;;12.90;99.90;;;;;;5013137;28;20498;-87
2022/06/07 03:27:12;;;;;;;4.53;3.00;;;12.90;99.90;;;;;;5014077;28;20041;-87
2022/06/07 03:29:38;;;;;;;5.00;2.95;;;12.90;99.90;;;;;;5012674;28;20378;-87
2022/06/07 03:32:06;;;;;;;4.10;2.60;;;12.90;99.90;;;;;;5006691;28;20022;-86
2022/06/07 03:34:33;;;;;;;6.28;3.80;;;12.90;99.90;;;;;;5013347;28;20026;-87
2022/06/07 03:36:59;;;;;;;4.60;3.05;;;12.90;99.90;;;;;;5013240;28;20017;-87
2022/06/07 03:39:25;;;;;;;4.85;3.20;;;12.80;99.90;;;;;;5012749;28;20037;-87
2022/06/07 03:41:51;;;;;;;5.28;3.42;;;12.80;99.90;;;;;;5026743;22;20054;-88
2022/06/07 03:44:17;;;;;;;5.40;3.95;;;12.80;99.90;;;;;;5013569;28;20018;-89
2022/06/07 03:46:45;;;;;;;6.85;4.13;;;12.80;99.90;;;;;;5013488;28;20502;-88
2022/06/07 03:49:11;;;;;;;5.75;3.90;;;12.90;99.90;;;;;;5012817;28;20069;-92
2022/06/07 03:51:38;;;;;;;6.93;3.78;;;12.90;99.90;;;;;;5013551;28;20044;-90
2022/06/07 03:54:04;;;;;;;4.40;3.33;;;12.90;99.90;;;;;;5011313;28;20022;-93
2022/06/07 03:56:30;;;;;;;5.07;3.25;;;12.90;99.90;;;;;;5009135;28;20028;-93
2022/06/07 03:58:56;;;;;;;4.82;3.47;;;12.90;99.90;;;;;;5014568;28;20026;-92
2022/06/07 04:01:23;;;;;;;3.95;2.97;;;12.90;99.90;;;;;;4995401;28;20430;-92
2022/06/07 04:03:52;;;;;;;4.43;3.00;;;12.80;99.90;;;;;;5005845;28;20034;-91
2022/06/07 04:06:19;;;;;;;6.68;3.60;;;12.90;99.90;;;;;;5013113;28;20018;-91
2022/06/07 04:08:44;;;;;;;3.88;3.17;;;12.90;99.90;;;;;;5013989;28;20033;-90
2022/06/07 04:11:13;;;;;;;3.78;3.05;;;12.90;99.90;;;;;;5013187;28;20025;-90
2022/06/07 04:13:38;;;;;;;11.07;4.13;;;13.00;99.90;;;;;;5006582;28;20073;-92
2022/06/07 04:16:06;;;;;;;6.32;3.83;;;13.00;99.90;;;;;;5013113;28;20053;-90
2022/06/07 04:18:32;;;;;;;6.15;4.18;;;13.10;99.90;;;;;;5006311;28;20022;-91
2022/06/07 04:20:59;;;;;;;5.82;3.90;;;13.20;99.90;;;;;;5012151;28;20084;-91
2022/06/07 04:23:25;;;;;;;10.63;4.78;;;13.20;99.90;;;;;;5013642;28;20033;-91
2022/06/07 04:25:51;;;;;;;7.18;4.50;;;13.40;99.90;;;;;;5009964;28;20025;-90
2022/06/07 04:28:17;;;;;;;8.15;4.68;;;13.40;99.90;;;;;;5007313;28;20036;-90
2022/06/07 04:30:46;;;;;;;5.57;3.53;;;13.50;99.90;;;;;;5006168;28;20485;-91
2022/06/07 04:33:14;;;;;;;6.93;4.40;;;13.50;99.90;;;;;;5010047;28;20527;-90
2022/06/07 04:35:45;;;;;;;6.05;3.75;;;13.60;99.90;;;;;;5010699;28;20032;-92
2022/06/07 04:38:12;;;;;;;8.73;4.18;;;13.70;99.90;;;;;;5007183;28;20032;-91
2022/06/07 04:40:42;;;;;;;7.57;4.68;;;13.80;99.90;;;;;;5035821;23;20037;-86
2022/06/07 04:43:09;;;;;;;9.82;4.05;;;13.80;99.90;;;;;;5031442;28;20490;-86
2022/06/07 04:45:37;;;;;;;6.05;3.92;;;13.90;99.90;;;;;;5031096;28;20426;-87
2022/06/07 04:48:07;;;;;;;6.50;4.60;;;14.00;99.90;;;;;;5031838;28;20132;-87
2022/06/07 04:50:33;;;;;;;7.22;4.53;;;14.00;99.90;;;;;;5031187;28;20025;-87
2022/06/07 04:52:59;;;;;;;8.77;3.80;;;14.00;99.90;;;;;;5013146;28;20029;-86
2022/06/07 04:55:25;;;;;;;7.53;4.80;;;14.00;99.90;;;;;;5013046;28;20033;-87
2022/06/07 04:57:50;;;;;;;5.65;4.13;;;14.00;99.90;;;;;;5031082;28;20061;-86
2022/06/07 05:00:18;;;;;;;5.38;3.63;;;14.00;99.90;;;;;;5030420;28;20033;-87
2022/06/07 05:02:45;;;;;;;6.10;3.58;;;14.10;99.90;;;;;;5031639;28;20033;-87
2022/06/07 05:05:13;;;;;;;6.43;4.10;;;14.10;99.90;;;;;;5031108;28;20041;-87
2022/06/07 05:07:39;;;;;;;8.98;4.50;;;14.10;99.90;;;;;;5030484;28;20518;-87
2022/06/07 05:10:11;;;;;;;10.57;4.70;;;14.10;99.90;;;;;;5029649;28;20026;-87
2022/06/07 05:12:37;;;;;;;4.57;3.80;;;14.10;99.90;;;;;;5031412;28;20020;-87
2022/06/07 05:15:06;;;;;;;8.27;4.18;;;14.10;99.90;;;;;;5013398;28;20378;-87
2022/06/07 05:17:32;;;;;;;6.13;3.55;;;14.10;99.90;;;;;;5031383;28;20040;-87
2022/06/07 05:19:58;;;;;;;7.63;3.75;;;14.10;99.90;;;;;;5029672;28;20100;-87
2022/06/07 05:22:26;;;;;;;9.40;4.28;;;14.10;99.90;;;;;;5030390;28;20433;-87
2022/06/07 05:24:52;;;;;;;5.53;3.80;;;14.10;99.90;;;;;;5030881;28;20116;-87
2022/06/07 05:27:22;;;;;;;6.28;3.85;;;14.10;99.90;;;;;;5031581;28;20064;-88
2022/06/07 05:29:52;;;;;;;8.20;4.10;;;14.10;99.90;;;;;;5030870;28;20047;-88
2022/06/07 05:32:18;;;;;;;7.32;3.83;;;14.10;99.90;;;;;;5031292;28;20017;-88
2022/06/07 05:34:44;;;;;;;8.25;4.93;;;14.10;99.90;;;;;;5012019;28;20037;-88
2022/06/07 05:37:19;;;;;;;6.03;4.30;;;14.20;99.90;;;;;;5031417;28;20108;-87
2022/06/07 05:42:24;;;;;;;7.65;4.72;;;14.30;99.90;;;;;;5028788;28;20041;-90
2022/06/07 05:44:50;;;;;;;5.85;4.65;;;14.40;99.90;;;;;;5030767;28;20391;-90
2022/06/07 05:47:16;;;;;;;10.13;5.05;;;14.40;99.90;;;;;;5031493;28;20048;-89
2022/06/07 05:49:42;;;;;;;11.45;5.93;;;14.40;99.90;;;;;;5017513;28;20018;-89
2022/06/07 05:52:08;;;;;;;8.88;5.70;;;14.50;99.90;;;;;;5028862;28;21475;-90
2022/06/07 05:54:38;;;;;;;9.10;5.60;;;14.60;99.90;;;;;;5030102;28;20021;-89
2022/06/07 05:57:05;;;;;;;10.23;5.75;;;14.60;99.90;;;;;;5031161;28;20030;-90
2022/06/07 05:59:31;;;;;;;8.07;5.00;;;14.60;99.90;;;;;;5005033;28;20013;-90
2022/06/07 06:01:56;;;;;;;7.80;5.22;;;14.70;99.90;;;;;;5027823;28;20063;-90
2022/06/07 06:04:24;;;;;;;9.80;5.45;;;14.70;99.90;;;;;;5030516;28;20097;-89
2022/06/07 06:06:53;;;;;;;7.93;4.25;;;14.70;99.90;;;;;;5030052;28;20032;-89
2022/06/07 06:12:03;;;;;;;6.90;4.65;;;14.70;99.90;;;;;;5030778;28;20083;-89
2022/06/07 06:14:29;;;;;;;7.82;5.38;;;14.80;99.90;;;;;;5030424;28;20026;-89
2022/06/07 06:16:55;;;;;;;9.10;5.13;;;14.80;99.90;;;;;;5012893;28;20030;-90
2022/06/07 06:19:21;;;;;;;9.63;4.38;;;14.90;99.90;;;;;;5029733;28;20104;-88
2022/06/07 06:21:48;;;;;;;9.15;5.05;;;14.90;99.90;;;;;;5028424;28;20037;-89
2022/06/07 06:24:15;;;;;;;10.43;4.65;;;14.90;99.90;;;;;;5029767;28;20049;-88
2022/06/07 06:26:42;;;;;;;9.00;5.03;;;14.90;99.90;;;;;;5025388;28;20069;-89
2022/06/07 06:29:08;;;;;;;8.02;4.00;;;15.00;99.90;;;;;;5027908;28;20025;-89
2022/06/07 06:31:35;;;;;;;7.03;4.13;;;15.00;99.90;;;;;;5012901;28;20090;-90
2022/06/07 06:34:02;;;;;;;7.65;4.45;;;15.00;99.90;;;;;;5032403;28;20006;-90
2022/06/07 06:36:29;;;;;;;7.10;4.07;;;15.10;99.90;;;;;;5027127;28;20445;-87
2022/06/07 06:38:55;;;;;;;6.20;3.97;;;15.20;99.90;;;;;;5033206;28;20021;-88
2022/06/07 06:41:24;;;;;;;8.98;4.38;;;15.30;99.90;;;;;;5042112;22;20057;-91
2022/06/07 06:43:51;;;;;;;5.70;3.13;;;15.30;99.90;;;;;;5000330;28;20693;-94
2022/06/07 06:46:29;;;;;;;5.50;2.60;;;15.40;99.90;;;;;;5022592;28;20410;-94
2022/06/07 06:48:56;;;;;;;4.55;2.60;;;15.30;99.90;;;;;;5025338;28;20105;-94
2022/06/07 06:51:23;;;;;;;6.53;2.65;;;15.20;99.90;;;;;;5028442;28;20025;-94
2022/06/07 06:53:49;;;;;;;2.50;1.83;;;15.20;99.90;;;;;;5028825;28;20041;-94
2022/06/07 06:56:19;;;;;;;2.80;1.95;;;15.30;99.90;;;;;;5018492;28;20027;-92
2022/06/07 06:58:45;;;;;;;1.42;1.33;;;15.30;99.90;;;;;;5017270;28;20045;-95
2022/06/07 07:01:14;;;;;;;1.45;1.27;;;15.40;99.90;;;;;;5026152;28;20436;-95
2022/06/07 07:03:41;;;;;;;1.50;1.40;;;15.40;99.90;;;;;;5026975;28;20090;-93
2022/06/07 07:06:09;;;;;;;3.00;2.00;;;15.40;99.90;;;;;;5023739;28;20368;-91
2022/06/07 07:08:37;;;;;;;3.50;1.92;;;15.50;99.90;;;;;;5005933;28;20033;-81
2022/06/07 07:11:08;;;;;;;2.45;1.88;;;15.60;99.90;;;;;;5021833;28;20022;-88
2022/06/07 07:13:34;;;;;;;3.22;2.00;;;15.80;99.90;;;;;;5018850;28;20010;-87
2022/06/07 07:16:00;;;;;;;3.85;2.58;;;15.90;99.90;;;;;;5013844;28;20384;-87
2022/06/07 07:18:26;;;;;;;3.03;2.78;;;15.90;99.90;;;;;;4997362;28;20029;-88
2022/06/07 07:20:52;;;;;;;3.05;2.10;;;15.90;99.90;;;;;;5004704;28;20459;-87
2022/06/07 07:23:19;;;;;;;1.85;1.75;;;15.90;99.90;;;;;;5014620;28;20034;-87
2022/06/07 07:25:45;;;;;;;2.00;1.80;;;15.90;99.90;;;;;;5014280;28;20064;-86
2022/06/07 07:28:11;;;;;;;2.00;1.80;;;16.00;99.90;;;;;;5014957;28;20029;-88
2022/06/07 07:30:37;;;;;;;1.70;1.60;;;16.00;99.90;;;;;;5007400;28;20030;-88
2022/06/07 07:33:03;;;;;;;1.50;1.40;;;16.00;99.90;;;;;;5012152;28;20176;-87
2022/06/07 07:35:30;;;;;;;1.95;1.10;;;16.10;99.90;;;;;;5012576;28;20025;-86
2022/06/07 07:37:57;;;;;;;0.80;0.80;;;16.20;99.90;;;;;;5013175;28;20153;-86
2022/06/07 07:40:23;;;;;;;1.48;0.80;;;16.20;99.90;;;;;;5011721;28;20033;-88
2022/06/07 07:42:49;;;;;;;0.70;0.50;;;16.30;99.90;;;;;;5013842;28;20506;-88
2022/06/07 07:45:15;;;;;;;0.80;0.80;;;16.40;99.90;;;;;;5019575;28;20050;-89
2022/06/07 07:47:41;;;;;;;0.98;0.98;;;16.40;99.90;;;;;;5020077;28;20022;-89
2022/06/07 07:50:07;;;;;;;1.80;1.17;;;16.40;99.90;;;;;;4995548;28;20018;-88
2022/06/07 07:52:33;;;;;;;1.40;1.30;;;16.40;99.90;;;;;;5014074;28;20025;-89
2022/06/07 07:54:58;;;;;;;0.85;0.85;;;16.30;99.90;;;;;;5025345;28;20030;-89
2022/06/07 07:57:24;;;;;;;1.10;0.80;;;16.30;99.90;;;;;;5003599;28;20033;-89
2022/06/07 07:59:50;;;;;;;0.40;0.40;;;16.30;99.90;;;;;;5019804;28;20130;-92
2022/06/07 08:02:18;;;;;;;0.80;0.80;;;16.40;99.90;;;;;;5000111;28;20032;-93
2022/06/07 08:04:44;;;;;;;1.45;0.80;;;16.10;99.90;;;;;;5006649;28;20426;-89
2022/06/07 08:07:10;;;;;;;0.80;0.80;;;16.10;99.90;;;;;;4996943;28;20021;-92
2022/06/07 08:09:36;;;;;;;0.80;0.80;;;16.10;99.90;;;;;;5021764;28;20036;-90
2022/06/07 08:12:05;;;;;;;0.98;0.88;;;16.00;99.90;;;;;;5024982;28;20025;-90
2022/06/07 08:14:32;;;;;;;0.70;0.70;;;16.00;99.90;;;;;;5021601;28;20026;-91
2022/06/07 08:16:58;;;;;;;0.50;0.50;;;16.00;99.90;;;;;;5009587;28;20048;-92
2022/06/07 08:19:24;;;;;;;0.57;0.57;;;15.90;99.90;;;;;;4998517;28;20498;-88
2022/06/07 08:21:50;;;;;;;0.50;0.50;;;16.00;99.90;;;;;;5005349;28;20526;-88
2022/06/07 08:24:17;;;;;;;0.60;0.60;;;16.00;99.90;;;;;;5011578;28;20471;-87
2022/06/07 08:26:45;;;;;;;0.50;0.45;;;16.00;99.90;;;;;;5012943;28;20056;-86
2022/06/07 08:29:12;;;;;;;0.70;0.60;;;16.00;99.90;;;;;;5012346;28;20018;-88
2022/06/07 08:31:38;;;;;;;0.40;0.32;;;16.00;99.90;;;;;;4999946;28;20398;-87
2022/06/07 08:39:35;;;;;;;0.28;0.28;;;15.80;99.90;;;;;;5013000;28;20068;-87
2022/06/07 08:42:27;;;;;;;0.13;0.13;;;15.90;99.90;;;;;;4994381;28;20571;-85
2022/06/07 08:45:01;;;;;;;0.20;0.20;;;15.90;99.90;;;;;;5010995;28;20096;-86
2022/06/07 08:47:57;;;;;;;0.20;0.20;;;15.90;99.90;;;;;;4994745;28;20026;-85
2022/06/07 08:50:27;;;;;;;0.20;0.20;;;16.00;99.90;;;;;;4989865;28;20527;-85
2022/06/07 08:53:09;;;;;;;0.20;0.20;;;15.90;99.90;;;;;;5011617;28;20088;-84
2022/06/07 08:55:45;;;;;;;0.20;0.20;;;16.00;99.90;;;;;;5004552;28;20018;-84
2022/06/07 08:58:18;;;;;;;0.20;0.20;;;16.00;99.90;;;;;;5009575;28;20026;-84
2022/06/07 09:00:59;;;;;;;0.25;0.22;;;16.00;99.90;;;;;;5007957;28;20049;-84
2022/06/07 09:03:43;;;;;;;0.25;0.20;;;15.90;99.90;;;;;;5009428;28;20033;-83
2022/06/07 09:06:21;;;;;;;0.10;0.10;;;16.00;99.90;;;;;;5008178;28;20014;-83
2022/06/07 09:08:57;;;;;;;0.00;0.00;;;16.20;99.90;;;;;;5012291;28;20014;-83
2022/06/07 09:14:55;;;;;;;0.10;0.10;;;16.80;99.90;;;;;;5005632;28;20060;-84
2022/06/07 09:17:34;;;;;;;0.10;0.10;;;17.00;99.90;;;;;;4999338;28;20408;-84
2022/06/07 09:20:01;;;;;;;0.10;0.10;;;17.10;99.90;;;;;;4993483;28;20037;-84
2022/06/07 09:23:00;;;;;;;0.30;0.20;;;17.10;99.90;;;;;;5012382;28;20584;-85
2022/06/07 09:25:28;;;;;;;0.10;0.10;;;17.00;99.90;;;;;;4988621;28;20068;-85
2022/06/07 09:27:57;;;;;;;0.30;0.22;;;17.00;99.90;;;;;;5016982;28;20033;-85
2022/06/07 09:30:41;;;;;;;0.40;0.10;;;17.20;99.90;;;;;;5011262;28;20052;-85
2022/06/07 09:33:20;;;;;;;0.40;0.20;;;17.50;99.90;;;;;;5010788;28;20036;-84
2022/06/07 09:35:49;;;;;;;0.13;0.13;;;17.50;99.90;;;;;;5011994;28;20018;-83
2022/06/07 09:38:28;;;;;;;0.10;0.10;;;17.80;99.90;;;;;;5013318;28;20060;-84
2022/06/07 09:40:56;;;;;;;0.20;0.20;;;17.90;99.90;;;;;;5028796;22;20049;-81
2022/06/07 09:43:28;;;;;;;0.22;0.22;;;18.10;99.90;;;;;;5028196;28;20116;-81
2022/06/07 09:45:57;;;;;;;0.20;0.20;;;18.00;99.90;;;;;;5029208;28;20033;-80
2022/06/07 09:48:25;;;;;;;0.30;0.30;;;18.00;99.90;;;;;;5027999;28;20022;-79
2022/06/07 09:50:58;;;;;;;0.20;0.20;;;18.20;99.90;;;;;;5028679;28;20017;-80
2022/06/07 09:53:31;;;;;;;0.45;0.20;;;18.40;99.90;;;;;;5032991;28;20076;-80
2022/06/07 09:56:12;;;;;;;0.13;0.13;;;18.30;99.90;;;;;;5027552;28;20027;-81
2022/06/07 09:59:02;;;;;;;0.50;0.50;;;18.30;99.90;;;;;;5030667;28;20394;-81
2022/06/07 10:01:54;;;;;;;0.10;0.10;;;18.10;99.90;;;;;;5029392;28;20018;-80
2022/06/07 10:04:39;;;;;;;0.50;0.25;;;17.80;99.90;;;;;;5028941;28;20064;-81
2022/06/07 10:07:28;;;;;;;0.20;0.20;;;17.60;99.90;;;;;;5029314;28;20128;-81
2022/06/07 10:10:32;;;;;;;0.17;0.17;;;17.50;99.90;;;;;;5023427;28;20036;-79
2022/06/07 10:13:34;;;;;;;0.75;0.30;;;17.60;99.90;;;;;;5030585;28;20033;-81
2022/06/07 10:16:15;;;;;;;0.20;0.20;;;17.70;99.90;;;;;;5016641;28;20052;-81
2022/06/07 10:19:02;;;;;;;0.20;0.20;;;17.80;99.90;;;;;;5030272;28;20108;-81
2022/06/07 10:21:59;;;;;;;0.30;0.30;;;18.00;99.90;;;;;;5029480;28;20555;-81
2022/06/07 10:24:51;;;;;;;0.10;0.10;;;18.30;99.90;;;;;;4999014;28;20416;-81
2022/06/07 10:27:42;;;;;;;0.10;0.10;;;18.30;99.90;;;;;;5025099;28;20096;-80
2022/06/07 10:30:16;;;;;;;0.20;0.20;;;18.50;99.90;;;;;;5024129;28;20013;-81
2022/06/07 10:33:02;;;;;;;0.32;0.20;;;18.60;99.90;;;;;;5029809;28;20025;-81
2022/06/07 10:35:39;;;;;;;1.05;0.30;;;18.50;99.90;;;;;;5024362;28;20021;-81
2022/06/07 10:38:36;;;;;;;0.10;0.10;;;18.50;99.90;;;;;;5023712;28;20025;-81
2022/06/07 10:41:04;;;;;;;0.63;0.17;;;18.40;99.90;;;;;;5024809;28;20486;-81
2022/06/07 10:43:53;;;;;;;0.40;0.30;;;18.40;99.90;;;;;;5023560;28;20044;-81
2022/06/07 10:46:21;;;;;;;0.63;0.45;;;18.60;99.90;;;;;;5027728;28;20479;-81
2022/06/07 10:49:05;;;;;;;0.93;0.43;;;18.60;99.90;;;;;;5028246;28;20021;-80
2022/06/07 10:54:52;;;;;;;2.42;0.68;;;18.70;99.90;;;;;;5029905;28;20101;-80
2022/06/07 10:57:22;;;;;;;3.15;0.80;;;18.70;99.90;;;;;;5027654;28;20032;-81
2022/06/07 10:59:51;;;;;;;1.55;0.57;;;18.80;99.90;;;;;;5024103;28;20025;-80
2022/06/07 11:02:24;;;;;;;0.82;0.60;;;18.70;99.90;;;;;;5028213;28;20092;-80
2022/06/07 11:10:48;;;;;;;1.38;0.10;;;18.90;99.90;;;;;;5023385;28;20052;-80
2022/06/07 11:13:38;;;;;;;0.10;0.10;;;18.70;99.90;;;;;;5029794;28;20073;-81
2022/06/07 11:16:34;;;;;;;0.70;0.20;;;18.60;99.90;;;;;;5029043;28;20018;-82
2022/06/07 11:19:02;;;;;;;0.17;0.00;;;18.70;99.90;;;;;;5022562;28;20036;-80
2022/06/07 11:21:37;;;;;;;0.73;0.10;;;18.70;99.90;;;;;;5033346;28;20021;-82
2022/06/07 11:24:04;;;;;;;0.10;0.10;;;18.60;99.90;;;;;;5032773;28;20613;-81
2022/06/07 11:26:58;;;;;;;1.25;0.08;;;18.80;99.90;;;;;;5032863;28;20075;-81
2022/06/07 11:29:32;;;;;;;0.15;0.15;;;19.00;99.90;;;;;;5018398;28;20060;-80
2022/06/07 11:32:00;;;;;;;0.68;0.10;;;19.00;99.90;;;;;;5032976;28;20092;-82
2022/06/07 11:34:34;;;;;;;2.40;0.40;;;18.90;99.90;;;;;;5033360;28;20101;-80
2022/06/07 11:37:15;;;;;;;1.48;0.30;;;18.70;99.90;;;;;;5030089;28;20027;-81
2022/06/07 11:39:40;;;;;;;2.88;0.50;;;18.40;99.90;;;;;;5023882;28;20025;-80
2022/06/07 11:42:20;;;;;;;2.72;0.68;;;18.20;99.90;;;;;;5085699;22;20040;-88
2022/06/07 11:45:03;;;;;;;3.17;0.50;;;17.90;99.90;;;;;;5055201;28;20029;-90
2022/06/07 11:47:36;;;;;;;3.25;1.00;;;17.80;99.90;;;;;;5069209;28;20163;-87
2022/06/07 11:50:10;;;;;;;4.68;0.90;;;17.50;99.90;;;;;;5071134;28;20082;-83
2022/06/07 11:52:54;;;;;;;1.08;0.63;;;17.30;99.90;;;;;;5058575;28;20028;-84
2022/06/07 11:55:23;;;;;;;0.93;0.50;;;17.10;99.90;;;;;;5031894;28;20021;-88
2022/06/07 11:58:00;;;;;;;2.65;1.08;;;16.80;99.90;;;;;;5035820;28;20606;-86
2022/06/07 12:00:28;;;;;;;3.22;0.90;;;16.80;99.90;;;;;;5053084;28;20025;-84
2022/06/07 12:02:57;;;;;;;3.45;1.02;;;17.00;99.90;;;;;;5053746;28;20040;-87
2022/06/07 12:05:40;;;;;;;6.22;1.00;;;17.20;99.90;;;;;;5031926;28;20018;-84
2022/06/07 12:08:44;;;;;;;4.97;0.85;;;17.50;99.90;;;;;;5047604;28;20496;-86
2022/06/07 12:11:22;;;;;;;4.53;0.95;;;17.40;99.90;;;;;;5049211;28;20065;-87
2022/06/07 12:14:18;;;;;;;4.07;0.98;;;17.50;99.90;;;;;;5053744;28;20017;-88
2022/06/07 12:16:55;;;;;;;1.33;0.80;;;17.40;99.90;;;;;;5053315;28;20017;-86
2022/06/07 12:19:28;;;;;;;2.45;1.15;;;17.40;99.90;;;;;;5060159;28;20498;-88
2022/06/07 12:22:13;;;;;;;3.33;1.70;;;17.60;99.90;;;;;;5035783;28;20525;-86
2022/06/07 12:24:46;;;;;;;2.92;1.02;;;17.70;99.90;;;;;;5048648;28;20029;-86
2022/06/07 12:27:30;;;;;;;3.50;0.90;;;18.00;99.90;;;;;;5047235;28;20028;-84
2022/06/07 12:30:02;;;;;;;3.53;0.93;;;18.10;99.90;;;;;;5045275;28;20027;-84
2022/06/07 12:32:38;;;;;;;3.63;1.27;;;18.00;99.90;;;;;;5052043;28;20021;-86
2022/06/07 12:35:17;;;;;;;2.30;1.02;;;18.20;99.90;;;;;;5051865;28;20025;-86
2022/06/07 12:37:58;;;;;;;2.22;0.88;;;18.30;99.90;;;;;;5053087;28;20016;-89
2022/06/07 12:40:31;;;;;;;5.72;1.67;;;18.60;99.90;;;;;;5038801;28;20109;-86
2022/06/07 12:42:57;;;;;;;0.80;0.63;;;18.80;99.90;;;;;;5053216;28;20029;-87
2022/06/07 12:45:34;;;;;;;1.67;0.73;;;18.70;99.90;;;;;;5051879;28;20029;-90
2022/06/07 12:48:15;;;;;;;2.65;0.55;;;18.70;99.90;;;;;;5045535;28;20033;-87
2022/06/07 12:50:44;;;;;;;1.98;0.70;;;19.20;99.90;;;;;;5051501;28;20090;-89
2022/06/07 12:53:25;;;;;;;1.48;0.60;;;19.60;99.90;;;;;;5052510;28;20036;-86
2022/06/07 12:56:15;;;;;;;0.80;0.60;;;19.90;99.90;;;;;;5032744;28;20024;-85
2022/06/07 12:58:46;;;;;;;1.98;0.45;;;20.00;99.90;;;;;;5047909;28;20062;-86
2022/06/07 13:01:32;;;;;;;4.67;1.07;;;19.90;99.90;;;;;;5048094;28;20078;-84
2022/06/07 13:04:03;;;;;;;2.72;0.50;;;20.10;99.90;;;;;;5046626;28;20498;-86
2022/06/07 13:06:29;;;;;;;1.95;0.50;;;20.40;99.90;;;;;;5050779;28;20025;-87
2022/06/07 13:09:03;;;;;;;2.42;0.65;;;20.10;99.90;;;;;;5046242;28;20479;-86
2022/06/07 13:11:37;;;;;;;2.63;0.30;;;20.60;99.90;;;;;;5040677;23;20046;-83
2022/06/07 13:14:04;;;;;;;3.20;0.50;;;21.10;99.90;;;;;;4988106;28;20454;-85
2022/06/07 13:16:37;;;;;;;1.63;0.57;;;22.20;99.90;;;;;;4990977;28;20018;-85
2022/06/07 13:19:21;;;;;;;2.30;0.45;;;22.60;99.90;;;;;;5004554;28;20026;-85
2022/06/07 13:22:01;;;;;;;1.35;0.40;;;21.60;99.90;;;;;;4986098;28;20023;-83
2022/06/07 13:24:42;;;;;;;3.30;0.80;;;20.70;99.90;;;;;;4984984;28;20194;-86
2022/06/07 13:27:26;;;;;;;5.30;0.75;;;20.10;99.90;;;;;;4987085;28;20026;-85
2022/06/07 13:29:54;;;;;;;3.70;0.80;;;19.30;99.90;;;;;;5005208;28;20031;-84
2022/06/07 13:32:26;;;;;;;7.30;1.42;;;18.80;99.90;;;;;;4974385;28;20101;-83
2022/06/07 13:34:58;;;;;;;3.45;1.05;;;18.20;99.90;;;;;;4988299;28;20030;-85